Time;durP1;ratioP1;P1;durP2;ratioP2;P2;SDS_P1;SDS_P2;PMS_P1;PMS_P2;Temp;Humidity;BMP_temperature;BMP_pressure;BME280_temperature;BME280_humidity;BME280_pressure;Samples;Min_cycle;Max_cycle;Signal;HPM_P1;HPM_P2
2023/04/25 00:01:08;;;;;;;28.73;5.50;;;;;;;;;;5049117;28;20559;-71
2023/04/25 00:03:35;;;;;;;23.50;5.90;;;;;;;;;;5049648;28;20056;-71
2023/04/25 00:06:03;;;;;;;23.23;5.40;;;;;;;;;;5050410;28;20104;-71
2023/04/25 00:08:29;;;;;;;20.60;5.67;;;;;;;;;;5050031;28;20367;-71
2023/04/25 00:10:54;;;;;;;27.43;5.50;;;;;;;;;;5031631;28;20028;-71
2023/04/25 00:13:20;;;;;;;24.43;5.50;;;;;;;;;;5049465;28;20021;-71
2023/04/25 00:15:46;;;;;;;25.23;5.27;;;;;;;;;;5047406;28;20029;-71
2023/04/25 00:18:11;;;;;;;33.73;5.80;;;;;;;;;;5049340;28;20033;-71
2023/04/25 00:20:36;;;;;;;25.97;6.07;;;;;;;;;;5049785;28;20111;-70
2023/04/25 00:23:02;;;;;;;26.40;5.37;;;;;;;;;;5049447;28;20444;-71
2023/04/25 00:25:27;;;;;;;23.50;5.10;;;;;;;;;;5049775;28;20033;-71
2023/04/25 00:27:52;;;;;;;28.67;6.30;;;;;;;;;;5049951;28;20027;-71
2023/04/25 00:30:18;;;;;;;29.50;6.10;;;;;;;;;;5049890;28;20112;-71
2023/04/25 00:32:43;;;;;;;30.90;6.67;;;;;;;;;;5050228;28;20388;-71
2023/04/25 00:35:09;;;;;;;23.27;5.60;;;;;;;;;;5048363;28;20037;-70
2023/04/25 00:37:34;;;;;;;20.83;4.90;;;;;;;;;;5046697;28;20021;-71
2023/04/25 00:40:00;;;;;;;33.53;5.63;;;;;;;;;;5049775;28;20040;-71
2023/04/25 00:42:25;;;;;;;34.90;6.00;;;;;;;;;;5052930;28;20025;-71
2023/04/25 00:44:52;;;;;;;33.17;6.23;;;;;;;;;;5052753;28;20036;-72
2023/04/25 00:47:17;;;;;;;25.23;5.77;;;;;;;;;;5054431;28;20028;-71
2023/04/25 00:49:42;;;;;;;31.63;6.03;;;;;;;;;;5050564;28;20972;-71
2023/04/25 00:52:08;;;;;;;34.17;5.87;;;;;;;;;;5053277;28;20039;-71
2023/04/25 00:54:33;;;;;;;33.20;6.20;;;;;;;;;;5054077;28;20100;-71
2023/04/25 00:57:00;;;;;;;37.13;6.67;;;;;;;;;;5053684;28;20392;-71
2023/04/25 00:59:27;;;;;;;33.17;5.63;;;;;;;;;;5054572;28;20025;-71
2023/04/25 01:01:52;;;;;;;37.93;6.80;;;;;;;;;;5049725;28;20466;-72
2023/04/25 01:04:17;;;;;;;27.87;6.57;;;;;;;;;;5066513;22;20053;-72
2023/04/25 01:06:43;;;;;;;26.70;6.23;;;;;;;;;;5052327;28;20032;-72
2023/04/25 01:09:08;;;;;;;45.40;6.77;;;;;;;;;;5054183;28;20110;-73
2023/04/25 01:11:33;;;;;;;22.90;5.50;;;;;;;;;;5053599;28;20025;-73
2023/04/25 01:13:59;;;;;;;33.13;5.43;;;;;;;;;;5054160;28;20020;-73
2023/04/25 01:16:24;;;;;;;33.43;6.27;;;;;;;;;;5053881;28;20449;-73
2023/04/25 01:18:51;;;;;;;30.03;5.80;;;;;;;;;;5048799;28;20021;-72
2023/04/25 01:21:16;;;;;;;27.70;5.90;;;;;;;;;;5054346;28;20035;-72
2023/04/25 01:23:42;;;;;;;35.37;6.77;;;;;;;;;;5051942;28;20399;-73
2023/04/25 01:26:11;;;;;;;21.63;4.43;;;;;;;;;;5053434;28;20036;-72
2023/04/25 01:28:37;;;;;;;33.03;5.63;;;;;;;;;;5053459;28;20547;-72
2023/04/25 01:31:02;;;;;;;35.13;5.57;;;;;;;;;;5051784;28;20103;-72
2023/04/25 01:33:27;;;;;;;24.90;4.93;;;;;;;;;;5052959;28;20028;-72
2023/04/25 01:35:53;;;;;;;26.07;6.00;;;;;;;;;;5050492;28;20397;-72
2023/04/25 01:38:18;;;;;;;25.83;5.13;;;;;;;;;;5053894;28;20108;-72
2023/04/25 01:40:45;;;;;;;27.47;6.10;;;;;;;;;;5052683;28;20103;-72
2023/04/25 01:43:11;;;;;;;25.30;4.80;;;;;;;;;;5052756;28;20109;-72
2023/04/25 01:45:40;;;;;;;21.97;4.33;;;;;;;;;;5050535;28;20412;-71
2023/04/25 01:48:06;;;;;;;23.50;4.73;;;;;;;;;;5052275;28;20021;-71
2023/04/25 01:50:31;;;;;;;23.57;4.37;;;;;;;;;;5052136;28;20472;-71
2023/04/25 01:52:56;;;;;;;29.83;5.13;;;;;;;;;;5052122;28;20025;-72
2023/04/25 01:55:22;;;;;;;24.33;4.70;;;;;;;;;;5045733;28;20053;-71
2023/04/25 01:57:47;;;;;;;26.43;4.90;;;;;;;;;;5051833;28;20031;-71
2023/04/25 02:00:13;;;;;;;22.43;4.60;;;;;;;;;;5049428;28;20056;-72
2023/04/25 02:02:38;;;;;;;24.97;4.70;;;;;;;;;;5050598;28;20033;-72
2023/04/25 02:05:04;;;;;;;21.73;4.63;;;;;;;;;;5053432;28;20051;-72
2023/04/25 02:07:29;;;;;;;24.17;4.47;;;;;;;;;;5052542;28;20036;-72
2023/04/25 02:09:54;;;;;;;25.17;5.10;;;;;;;;;;5050383;28;20041;-72
2023/04/25 02:12:20;;;;;;;24.07;4.50;;;;;;;;;;5053467;28;20033;-72
2023/04/25 02:14:45;;;;;;;26.90;5.33;;;;;;;;;;5050576;28;20013;-72
2023/04/25 02:17:12;;;;;;;21.13;5.03;;;;;;;;;;5052135;28;20025;-72
2023/04/25 02:19:37;;;;;;;20.23;4.00;;;;;;;;;;5051309;28;20104;-66
2023/04/25 02:22:03;;;;;;;21.37;4.53;;;;;;;;;;5053326;28;20104;-66
2023/04/25 02:24:28;;;;;;;21.77;5.60;;;;;;;;;;5052087;28;20774;-66
2023/04/25 02:26:55;;;;;;;23.37;4.23;;;;;;;;;;5051115;28;20115;-66
2023/04/25 02:29:20;;;;;;;19.90;4.40;;;;;;;;;;5051768;28;20032;-66
2023/04/25 02:31:46;;;;;;;24.63;4.93;;;;;;;;;;5050479;28;20033;-65
2023/04/25 02:34:11;;;;;;;27.33;5.40;;;;;;;;;;5049586;28;20027;-66
2023/04/25 02:36:36;;;;;;;25.37;4.93;;;;;;;;;;5052101;28;20025;-65
2023/04/25 02:39:02;;;;;;;20.90;4.60;;;;;;;;;;5051404;28;20058;-65
2023/04/25 02:41:28;;;;;;;26.90;5.10;;;;;;;;;;5050620;28;20568;-65
2023/04/25 02:43:53;;;;;;;31.57;4.70;;;;;;;;;;5051380;28;20112;-65
2023/04/25 02:46:18;;;;;;;23.77;4.47;;;;;;;;;;5048836;28;20035;-65
2023/04/25 02:48:44;;;;;;;24.67;4.60;;;;;;;;;;5051838;28;20428;-65
2023/04/25 02:51:09;;;;;;;24.53;5.00;;;;;;;;;;5049770;28;20055;-65
2023/04/25 02:53:34;;;;;;;20.70;4.47;;;;;;;;;;5051294;28;20388;-66
2023/04/25 02:56:00;;;;;;;25.70;4.90;;;;;;;;;;5051151;28;20024;-65
2023/04/25 02:58:25;;;;;;;21.00;4.80;;;;;;;;;;5047489;28;20257;-65
2023/04/25 03:00:50;;;;;;;22.17;5.33;;;;;;;;;;5050712;28;20036;-65
2023/04/25 03:03:17;;;;;;;18.73;4.93;;;;;;;;;;5049632;28;20025;-65
2023/04/25 03:05:43;;;;;;;24.10;4.43;;;;;;;;;;5050949;28;20116;-65
2023/04/25 03:08:08;;;;;;;27.60;5.40;;;;;;;;;;5052477;28;20049;-66
2023/04/25 03:10:34;;;;;;;28.60;4.93;;;;;;;;;;5048230;28;20037;-65
2023/04/25 03:12:59;;;;;;;26.50;4.53;;;;;;;;;;5050912;28;20207;-65
2023/04/25 03:15:24;;;;;;;26.13;5.03;;;;;;;;;;5049751;28;20025;-65
2023/04/25 03:17:49;;;;;;;36.20;5.10;;;;;;;;;;5049856;28;20074;-65
2023/04/25 03:20:15;;;;;;;19.80;4.13;;;;;;;;;;5052163;28;20032;-65
2023/04/25 03:22:41;;;;;;;25.50;4.47;;;;;;;;;;5050288;28;20031;-65
2023/04/25 03:25:06;;;;;;;26.30;4.63;;;;;;;;;;5050249;28;20083;-65
2023/04/25 03:27:32;;;;;;;15.67;4.00;;;;;;;;;;5048587;28;20033;-65
2023/04/25 03:29:57;;;;;;;26.70;4.60;;;;;;;;;;5051151;28;20025;-65
2023/04/25 03:32:22;;;;;;;18.17;4.40;;;;;;;;;;5050998;28;20423;-65
2023/04/25 03:34:48;;;;;;;24.47;4.63;;;;;;;;;;5050869;28;20113;-65
2023/04/25 03:37:13;;;;;;;20.27;4.30;;;;;;;;;;5050959;28;20058;-65
2023/04/25 03:39:38;;;;;;;20.83;4.43;;;;;;;;;;5048046;28;20050;-65
2023/04/25 03:42:04;;;;;;;22.43;4.27;;;;;;;;;;5052068;28;20029;-65
2023/04/25 03:44:29;;;;;;;24.60;5.63;;;;;;;;;;5050804;28;20103;-64
2023/04/25 03:46:54;;;;;;;27.10;4.23;;;;;;;;;;5048636;28;20473;-65
2023/04/25 03:49:20;;;;;;;23.47;4.07;;;;;;;;;;5049685;28;20017;-65
2023/04/25 03:51:45;;;;;;;24.90;4.53;;;;;;;;;;5050415;28;20025;-65
2023/04/25 03:54:11;;;;;;;15.10;3.93;;;;;;;;;;5050306;28;20083;-65
2023/04/25 03:56:36;;;;;;;22.93;5.03;;;;;;;;;;5051281;28;20479;-65
2023/04/25 03:59:01;;;;;;;19.93;4.30;;;;;;;;;;5049182;28;20029;-65
2023/04/25 04:01:27;;;;;;;20.13;4.90;;;;;;;;;;5048418;28;20028;-65
2023/04/25 04:03:52;;;;;;;21.27;5.53;;;;;;;;;;5048455;28;20071;-64
2023/04/25 04:06:18;;;;;;;20.40;4.87;;;;;;;;;;5048531;28;20025;-64
2023/04/25 04:08:43;;;;;;;24.33;4.33;;;;;;;;;;5047003;28;20048;-65
2023/04/25 04:11:08;;;;;;;25.17;4.53;;;;;;;;;;5049482;28;20465;-65
2023/04/25 04:13:34;;;;;;;15.50;4.27;;;;;;;;;;5050822;28;20025;-65
2023/04/25 04:15:59;;;;;;;25.17;5.33;;;;;;;;;;5049251;28;20017;-65
2023/04/25 04:18:24;;;;;;;21.97;4.80;;;;;;;;;;5055390;28;20384;-65
2023/04/25 04:20:50;;;;;;;16.03;4.37;;;;;;;;;;5051010;28;20488;-65
2023/04/25 04:23:15;;;;;;;23.33;5.10;;;;;;;;;;5052640;28;20024;-65
2023/04/25 04:25:41;;;;;;;18.40;4.50;;;;;;;;;;5055446;28;20032;-65
2023/04/25 04:28:07;;;;;;;21.07;4.50;;;;;;;;;;5053533;28;20474;-64
2023/04/25 04:30:33;;;;;;;21.70;4.60;;;;;;;;;;5052915;28;20755;-64
2023/04/25 04:32:58;;;;;;;20.70;4.40;;;;;;;;;;5054470;28;20392;-64
2023/04/25 04:35:24;;;;;;;24.43;5.13;;;;;;;;;;5054022;28;20023;-65
2023/04/25 04:37:50;;;;;;;19.67;4.63;;;;;;;;;;5054772;28;20032;-65
2023/04/25 04:40:16;;;;;;;23.23;4.80;;;;;;;;;;5053288;28;20029;-65
2023/04/25 04:42:42;;;;;;;22.00;4.60;;;;;;;;;;5054323;28;20025;-65
2023/04/25 04:45:08;;;;;;;16.67;4.70;;;;;;;;;;5052305;28;20031;-65
2023/04/25 04:47:33;;;;;;;18.90;4.30;;;;;;;;;;5053998;28;20413;-65
2023/04/25 04:49:59;;;;;;;28.30;6.23;;;;;;;;;;5053281;28;20029;-65
2023/04/25 04:52:24;;;;;;;24.77;5.27;;;;;;;;;;5053690;28;20032;-64
2023/04/25 04:54:49;;;;;;;16.03;4.10;;;;;;;;;;5053647;28;20068;-65
2023/04/25 04:57:16;;;;;;;20.37;4.43;;;;;;;;;;5052793;28;20040;-65
2023/04/25 04:59:41;;;;;;;23.87;4.47;;;;;;;;;;5052210;28;20082;-65
2023/04/25 05:02:06;;;;;;;22.97;4.27;;;;;;;;;;5053000;28;20025;-65
2023/04/25 05:04:32;;;;;;;13.87;4.00;;;;;;;;;;5050931;28;20049;-65
2023/04/25 05:06:57;;;;;;;15.03;3.87;;;;;;;;;;5050481;28;20036;-66
2023/04/25 05:09:25;;;;;;;27.73;5.50;;;;;;;;;;5053775;28;20025;-66
2023/04/25 05:11:50;;;;;;;15.20;3.80;;;;;;;;;;5052380;28;20096;-66
2023/04/25 05:14:16;;;;;;;25.87;4.77;;;;;;;;;;5053857;28;20493;-65
2023/04/25 05:16:42;;;;;;;20.60;4.63;;;;;;;;;;5054427;28;20045;-66
2023/04/25 05:19:07;;;;;;;22.00;4.60;;;;;;;;;;5052384;28;20103;-65
2023/04/25 05:21:32;;;;;;;21.17;4.07;;;;;;;;;;5054635;28;20400;-65
2023/04/25 05:23:58;;;;;;;19.93;4.60;;;;;;;;;;5049246;28;20032;-65
2023/04/25 05:26:23;;;;;;;18.03;4.10;;;;;;;;;;5054218;28;20020;-64
2023/04/25 05:28:50;;;;;;;24.13;4.00;;;;;;;;;;5049724;28;20052;-65
2023/04/25 05:31:16;;;;;;;11.30;3.40;;;;;;;;;;5052876;28;20447;-65
2023/04/25 05:33:41;;;;;;;21.27;4.13;;;;;;;;;;5051764;28;20100;-65
2023/04/25 05:36:07;;;;;;;18.77;3.53;;;;;;;;;;5053769;28;20013;-65
2023/04/25 05:38:32;;;;;;;10.40;2.80;;;;;;;;;;5048650;28;20028;-65
2023/04/25 05:40:57;;;;;;;14.53;2.70;;;;;;;;;;5051741;28;20021;-65
2023/04/25 05:43:23;;;;;;;10.73;2.53;;;;;;;;;;5052740;28;20461;-65
2023/04/25 05:45:48;;;;;;;13.07;2.83;;;;;;;;;;5051563;28;20020;-64
2023/04/25 05:48:13;;;;;;;13.10;2.50;;;;;;;;;;5052224;28;20013;-64
2023/04/25 05:50:38;;;;;;;10.03;2.77;;;;;;;;;;5053469;28;20024;-64
2023/04/25 05:53:05;;;;;;;14.83;2.67;;;;;;;;;;5051915;28;20029;-64
2023/04/25 05:55:30;;;;;;;10.63;2.53;;;;;;;;;;5053121;28;20083;-65
2023/04/25 05:57:56;;;;;;;13.13;2.30;;;;;;;;;;5053753;28;20016;-64
2023/04/25 06:00:22;;;;;;;14.90;3.07;;;;;;;;;;5052348;28;20066;-64
2023/04/25 06:02:48;;;;;;;9.47;2.47;;;;;;;;;;5052863;28;20075;-64
2023/04/25 06:05:13;;;;;;;13.30;3.40;;;;;;;;;;5051492;28;20045;-64
2023/04/25 06:07:38;;;;;;;9.90;2.87;;;;;;;;;;5053131;28;20049;-63
2023/04/25 06:10:06;;;;;;;13.27;2.33;;;;;;;;;;5053131;28;20404;-63
2023/04/25 06:12:31;;;;;;;9.60;2.27;;;;;;;;;;5051743;28;20350;-63
2023/04/25 06:14:57;;;;;;;14.53;2.47;;;;;;;;;;5052233;28;20027;-62
2023/04/25 06:17:22;;;;;;;10.80;2.00;;;;;;;;;;5048422;28;20416;-61
2023/04/25 06:19:47;;;;;;;9.60;2.00;;;;;;;;;;5054572;28;20017;-64
2023/04/25 06:22:12;;;;;;;10.43;2.20;;;;;;;;;;5050047;28;20028;-61
2023/04/25 06:24:38;;;;;;;13.20;2.30;;;;;;;;;;5050826;28;20406;-62
2023/04/25 06:27:03;;;;;;;13.37;2.30;;;;;;;;;;5051977;28;20035;-61
2023/04/25 06:29:28;;;;;;;10.73;1.90;;;;;;;;;;5048306;28;20039;-62
2023/04/25 06:31:54;;;;;;;8.57;2.30;;;;;;;;;;5052633;28;20432;-62
2023/04/25 06:34:19;;;;;;;10.50;1.70;;;;;;;;;;5049929;28;20075;-62
2023/04/25 06:36:44;;;;;;;10.20;1.97;;;;;;;;;;5052924;28;20047;-62
2023/04/25 06:39:10;;;;;;;13.30;2.67;;;;;;;;;;5049802;28;20025;-63
2023/04/25 06:41:35;;;;;;;9.30;1.93;;;;;;;;;;5052967;28;20094;-63
2023/04/25 06:44:01;;;;;;;8.87;1.73;;;;;;;;;;5050859;28;20096;-65
2023/04/25 06:46:26;;;;;;;9.43;2.10;;;;;;;;;;5051033;28;20032;-64
2023/04/25 06:48:51;;;;;;;7.53;2.13;;;;;;;;;;5053052;28;20040;-64
2023/04/25 06:51:17;;;;;;;12.70;2.37;;;;;;;;;;5051578;28;20025;-64
2023/04/25 06:53:42;;;;;;;9.23;2.20;;;;;;;;;;5050675;28;20021;-63
2023/04/25 06:56:08;;;;;;;10.10;2.37;;;;;;;;;;5052745;28;20028;-64
2023/04/25 06:58:33;;;;;;;13.60;2.97;;;;;;;;;;5051808;28;20031;-64
2023/04/25 07:00:58;;;;;;;13.13;3.50;;;;;;;;;;5048826;28;20021;-64
2023/04/25 07:03:24;;;;;;;12.33;2.30;;;;;;;;;;5052404;28;20048;-64
2023/04/25 07:05:50;;;;;;;7.40;1.90;;;;;;;;;;5050835;28;20384;-64
2023/04/25 07:08:15;;;;;;;12.13;3.20;;;;;;;;;;5051435;28;20021;-64
2023/04/25 07:10:40;;;;;;;14.00;2.83;;;;;;;;;;5049857;28;20036;-63
2023/04/25 07:13:05;;;;;;;11.13;3.17;;;;;;;;;;5051660;28;20393;-63
2023/04/25 07:15:31;;;;;;;9.50;2.60;;;;;;;;;;5050803;28;20480;-62
2023/04/25 07:17:56;;;;;;;13.10;2.57;;;;;;;;;;5052296;28;20024;-61
2023/04/25 07:20:21;;;;;;;11.23;1.80;;;;;;;;;;5049945;28;20024;-61
2023/04/25 07:22:47;;;;;;;16.20;3.80;;;;;;;;;;5051543;28;20535;-62
2023/04/25 07:25:12;;;;;;;11.17;2.03;;;;;;;;;;5051356;28;20025;-61
2023/04/25 07:27:37;;;;;;;8.77;2.20;;;;;;;;;;5051082;28;20799;-61
2023/04/25 07:30:03;;;;;;;9.53;2.40;;;;;;;;;;5050294;28;20055;-61
2023/04/25 07:32:29;;;;;;;11.05;2.28;;;;;;;;;;5051229;28;20021;-62
2023/04/25 07:34:54;;;;;;;8.82;1.80;;;;;;;;;;5050935;28;20431;-62
2023/04/25 07:37:20;;;;;;;9.40;1.55;;;;;;;;;;5050391;28;20045;-62
2023/04/25 07:39:48;;;;;;;8.07;2.05;;;;;;;;;;5051802;28;20028;-62
2023/04/25 07:42:13;;;;;;;10.13;1.70;;;;;;;;;;5051030;28;20183;-62
2023/04/25 07:44:39;;;;;;;13.43;2.10;;;;;;;;;;5050829;28;20521;-62
2023/04/25 07:47:08;;;;;;;9.18;1.95;;;;;;;;;;5050689;28;20021;-62
2023/04/25 07:49:34;;;;;;;8.70;1.95;;;;;;;;;;5051440;28;20051;-62
2023/04/25 07:52:00;;;;;;;10.00;1.90;;;;;;;;;;5051330;28;20477;-62
2023/04/25 07:54:25;;;;;;;12.53;3.00;;;;;;;;;;5049089;28;20032;-62
2023/04/25 07:56:51;;;;;;;9.40;1.87;;;;;;;;;;5051210;28;20102;-62
2023/04/25 07:59:16;;;;;;;8.70;2.07;;;;;;;;;;5048059;28;20461;-62
2023/04/25 08:01:41;;;;;;;10.03;1.53;;;;;;;;;;5049532;28;20029;-63
2023/04/25 08:04:06;;;;;;;9.27;1.57;;;;;;;;;;5051572;28;20557;-62
2023/04/25 08:06:32;;;;;;;12.13;2.03;;;;;;;;;;5050259;28;20031;-62
2023/04/25 08:08:57;;;;;;;12.43;2.57;;;;;;;;;;5051375;28;20025;-62
2023/04/25 08:11:23;;;;;;;9.63;2.50;;;;;;;;;;5049118;28;20052;-62
2023/04/25 08:13:48;;;;;;;10.10;1.90;;;;;;;;;;5050557;28;20046;-61
2023/04/25 08:16:13;;;;;;;11.45;1.65;;;;;;;;;;5050291;28;20021;-61
2023/04/25 08:18:39;;;;;;;5.93;1.23;;;;;;;;;;5052156;28;20016;-62
2023/04/25 08:21:04;;;;;;;8.57;1.38;;;;;;;;;;5051421;28;20021;-61
2023/04/25 08:23:29;;;;;;;7.72;1.90;;;;;;;;;;5049558;28;20052;-62
2023/04/25 08:25:55;;;;;;;11.40;1.77;;;;;;;;;;5051984;28;20364;-61
2023/04/25 08:28:20;;;;;;;9.00;1.40;;;;;;;;;;5050224;28;20441;-61
2023/04/25 08:30:45;;;;;;;5.90;1.20;;;;;;;;;;5049808;28;20487;-61
2023/04/25 08:33:11;;;;;;;9.47;1.20;;;;;;;;;;5050424;28;20021;-62
2023/04/25 08:35:36;;;;;;;8.97;1.03;;;;;;;;;;5050286;28;20025;-62
2023/04/25 08:38:02;;;;;;;6.90;1.43;;;;;;;;;;5050859;28;20026;-61
2023/04/25 08:40:29;;;;;;;12.70;1.73;;;;;;;;;;5051102;28;20013;-62
2023/04/25 08:42:56;;;;;;;11.30;2.10;;;;;;;;;;5050529;28;20017;-61
2023/04/25 08:45:21;;;;;;;5.60;1.23;;;;;;;;;;5047014;28;20033;-62
2023/04/25 08:47:48;;;;;;;7.70;1.48;;;;;;;;;;5050310;28;20396;-62
2023/04/25 08:50:13;;;;;;;9.10;1.70;;;;;;;;;;5050820;28;20028;-61
2023/04/25 08:52:45;;;;;;;7.57;1.70;;;;;;;;;;5049127;28;20025;-62
2023/04/25 08:55:12;;;;;;;6.30;1.35;;;;;;;;;;5047367;28;20021;-61
2023/04/25 08:57:38;;;;;;;9.20;1.67;;;;;;;;;;5049652;28;20024;-61
2023/04/25 09:00:04;;;;;;;6.50;1.50;;;;;;;;;;5048192;28;20488;-61
2023/04/25 09:02:29;;;;;;;10.52;2.15;;;;;;;;;;5051120;28;20024;-62
2023/04/25 09:04:55;;;;;;;7.85;1.40;;;;;;;;;;5053474;28;20045;-62
2023/04/25 09:07:21;;;;;;;9.32;1.42;;;;;;;;;;5051979;28;20396;-61
2023/04/25 09:09:46;;;;;;;9.27;1.70;;;;;;;;;;5053497;28;20071;-62
2023/04/25 09:12:12;;;;;;;8.38;1.65;;;;;;;;;;5054674;28;20025;-63
2023/04/25 09:14:37;;;;;;;7.30;1.40;;;;;;;;;;5052269;28;20096;-63
2023/04/25 09:17:04;;;;;;;6.80;1.67;;;;;;;;;;5053318;28;20376;-62
2023/04/25 09:19:35;;;;;;;7.97;1.60;;;;;;;;;;5054140;28;20028;-62
2023/04/25 09:22:02;;;;;;;8.73;1.85;;;;;;;;;;5054766;28;20019;-63
2023/04/25 09:24:31;;;;;;;7.33;1.50;;;;;;;;;;5053429;28;20029;-63
2023/04/25 09:26:57;;;;;;;6.37;1.50;;;;;;;;;;5054653;28;20039;-63
2023/04/25 09:29:28;;;;;;;6.90;1.87;;;;;;;;;;5051846;28;20021;-63
2023/04/25 09:32:10;;;;;;;7.80;1.77;;;;;;;;;;5052797;28;20461;-63
2023/04/25 09:34:49;;;;;;;10.77;1.85;;;;;;;;;;5053643;28;20021;-64
2023/04/25 09:37:32;;;;;;;5.33;1.50;;;;;;;;;;5055001;28;20350;-64
2023/04/25 09:40:05;;;;;;;4.87;1.17;;;;;;;;;;5051296;28;20086;-64
2023/04/25 09:42:31;;;;;;;6.43;1.63;;;;;;;;;;5053727;28;20385;-64
2023/04/25 09:44:57;;;;;;;6.27;1.40;;;;;;;;;;5054617;28;20032;-64
2023/04/25 09:47:23;;;;;;;6.00;1.23;;;;;;;;;;5052578;28;20156;-64
2023/04/25 09:49:49;;;;;;;4.63;1.00;;;;;;;;;;5053761;28;20519;-64
2023/04/25 09:52:19;;;;;;;4.37;1.00;;;;;;;;;;5052439;28;20022;-64
2023/04/25 09:54:45;;;;;;;6.50;1.10;;;;;;;;;;5054288;28;20017;-64
2023/04/25 09:57:14;;;;;;;2.83;1.00;;;;;;;;;;5052884;28;20031;-63
2023/04/25 09:59:43;;;;;;;4.83;1.00;;;;;;;;;;5050151;28;20025;-64
2023/04/25 10:02:09;;;;;;;4.60;1.00;;;;;;;;;;5051910;28;20091;-64
2023/04/25 10:04:35;;;;;;;2.90;0.70;;;;;;;;;;5052726;28;20178;-64
2023/04/25 10:07:01;;;;;;;7.57;1.00;;;;;;;;;;5053783;28;20041;-63
2023/04/25 10:09:31;;;;;;;6.73;1.20;;;;;;;;;;5054005;28;20055;-63
2023/04/25 10:11:57;;;;;;;5.97;1.30;;;;;;;;;;5052742;28;20090;-62
2023/04/25 10:14:23;;;;;;;7.83;1.10;;;;;;;;;;5052617;28;20017;-63
2023/04/25 10:16:49;;;;;;;5.17;1.27;;;;;;;;;;5052019;28;20021;-63
2023/04/25 10:19:15;;;;;;;5.93;1.30;;;;;;;;;;5053315;28;20130;-62
2023/04/25 10:21:49;;;;;;;6.17;1.17;;;;;;;;;;5053234;28;20032;-62
2023/04/25 10:24:15;;;;;;;6.75;1.27;;;;;;;;;;5053424;28;20052;-62
2023/04/25 10:26:40;;;;;;;6.05;1.17;;;;;;;;;;5054140;28;20420;-62
2023/04/25 10:29:06;;;;;;;7.00;1.30;;;;;;;;;;5051772;28;20029;-63
2023/04/25 10:31:31;;;;;;;8.07;1.40;;;;;;;;;;5052884;28;20037;-63
2023/04/25 10:33:56;;;;;;;5.47;1.20;;;;;;;;;;5051172;28;20538;-63
2023/04/25 10:36:23;;;;;;;6.80;1.10;;;;;;;;;;5052730;28;20079;-63
2023/04/25 10:38:50;;;;;;;5.70;1.30;;;;;;;;;;5049878;28;20063;-63
2023/04/25 10:41:17;;;;;;;11.95;2.55;;;;;;;;;;5052545;28;20029;-64
2023/04/25 10:43:44;;;;;;;3.85;1.15;;;;;;;;;;5052480;28;20025;-63
2023/04/25 10:46:13;;;;;;;6.40;1.50;;;;;;;;;;5049967;28;20100;-64
2023/04/25 10:48:43;;;;;;;9.93;1.37;;;;;;;;;;5052783;28;20385;-64
2023/04/25 10:51:12;;;;;;;7.47;1.33;;;;;;;;;;5053065;28;20021;-64
2023/04/25 10:53:37;;;;;;;7.80;1.27;;;;;;;;;;5052061;28;20056;-64
2023/04/25 10:56:09;;;;;;;6.53;1.50;;;;;;;;;;5052096;28;20114;-64
2023/04/25 10:58:34;;;;;;;7.60;1.50;;;;;;;;;;5050331;28;20013;-64
2023/04/25 11:01:01;;;;;;;6.27;1.40;;;;;;;;;;5052412;28;20681;-63
2023/04/25 11:03:26;;;;;;;8.13;1.57;;;;;;;;;;5051669;28;20029;-64
2023/04/25 11:05:52;;;;;;;7.20;1.50;;;;;;;;;;5049620;28;20032;-64
2023/04/25 11:08:23;;;;;;;7.43;1.57;;;;;;;;;;5048161;28;20384;-63
2023/04/25 11:10:49;;;;;;;6.57;1.42;;;;;;;;;;5052316;28;20108;-64
2023/04/25 11:13:15;;;;;;;5.70;1.40;;;;;;;;;;5052549;28;20040;-64
2023/04/25 11:15:41;;;;;;;8.97;2.57;;;;;;;;;;5052572;28;20370;-63
2023/04/25 11:18:06;;;;;;;7.33;1.50;;;;;;;;;;5052258;28;20025;-63
2023/04/25 11:20:31;;;;;;;10.37;2.00;;;;;;;;;;5052256;28;20013;-63
2023/04/25 11:22:57;;;;;;;8.33;1.40;;;;;;;;;;5052385;28;20025;-63
2023/04/25 11:25:23;;;;;;;5.47;1.60;;;;;;;;;;5051830;28;20021;-63
2023/04/25 11:27:52;;;;;;;8.37;2.00;;;;;;;;;;5052117;28;20033;-63
2023/04/25 11:30:18;;;;;;;9.00;1.55;;;;;;;;;;5052257;28;20484;-64
2023/04/25 11:32:43;;;;;;;6.15;1.20;;;;;;;;;;5052006;28;20057;-64
2023/04/25 11:35:09;;;;;;;7.80;1.40;;;;;;;;;;5052557;28;20016;-64
2023/04/25 11:37:35;;;;;;;5.57;1.33;;;;;;;;;;5052279;28;20449;-65
2023/04/25 11:40:00;;;;;;;7.82;1.40;;;;;;;;;;5051111;28;20098;-64
2023/04/25 11:42:26;;;;;;;8.95;1.30;;;;;;;;;;5051830;28;20817;-64
2023/04/25 11:44:51;;;;;;;6.70;1.30;;;;;;;;;;5051832;28;20028;-63
2023/04/25 11:47:17;;;;;;;10.57;1.30;;;;;;;;;;5050465;28;20370;-63
2023/04/25 11:49:42;;;;;;;8.48;1.67;;;;;;;;;;5051743;28;20021;-63
2023/04/25 11:52:08;;;;;;;4.55;1.25;;;;;;;;;;5051658;28;20020;-64
2023/04/25 11:54:37;;;;;;;8.90;1.80;;;;;;;;;;5051899;28;20020;-65
2023/04/25 11:57:03;;;;;;;13.67;2.67;;;;;;;;;;5051927;28;20052;-66
2023/04/25 11:59:28;;;;;;;9.23;2.00;;;;;;;;;;5050366;28;20618;-67
2023/04/25 12:01:54;;;;;;;7.00;1.83;;;;;;;;;;5050444;28;20089;-66
2023/04/25 12:04:20;;;;;;;5.43;1.30;;;;;;;;;;5051327;28;20485;-66
2023/04/25 12:06:47;;;;;;;6.90;1.67;;;;;;;;;;5051016;28;20033;-66
2023/04/25 12:09:13;;;;;;;7.20;1.60;;;;;;;;;;5051555;28;20047;-65
2023/04/25 12:11:45;;;;;;;7.70;1.80;;;;;;;;;;5051737;28;20021;-66
2023/04/25 12:14:11;;;;;;;6.47;1.57;;;;;;;;;;5051308;28;20017;-65
2023/04/25 12:16:43;;;;;;;5.60;1.13;;;;;;;;;;5051906;28;20076;-65
2023/04/25 12:19:08;;;;;;;;;;;;;;;;;;5050817;28;20071;-65
2023/04/25 12:21:34;;;;;;;4.03;1.33;;;;;;;;;;5051792;28;19904;-65
2023/04/25 12:24:15;;;;;;;6.10;1.00;;;;;;;;;;5051718;28;20358;-64
2023/04/25 12:27:00;;;;;;;5.07;1.35;;;;;;;;;;5051245;28;20075;-64
2023/04/25 12:29:27;;;;;;;4.57;1.10;;;;;;;;;;5051280;28;20026;-63
2023/04/25 12:31:53;;;;;;;4.63;1.03;;;;;;;;;;5051204;28;20021;-62
2023/04/25 12:34:19;;;;;;;4.77;1.23;;;;;;;;;;5051235;28;20350;-63
2023/04/25 12:36:44;;;;;;;5.90;1.10;;;;;;;;;;5051589;28;20015;-64
2023/04/25 12:39:16;;;;;;;7.03;1.20;;;;;;;;;;5054683;28;20009;-64
2023/04/25 12:41:41;;;;;;;;;;;;;;;;;;5055737;28;20428;-64
2023/04/25 12:44:06;;;;;;;8.25;1.63;;;;;;;;;;5055558;28;19909;-64
2023/04/25 12:46:32;;;;;;;8.68;1.50;;;;;;;;;;5053820;28;20038;-63
2023/04/25 12:48:57;;;;;;;5.72;1.42;;;;;;;;;;5053495;28;20039;-64
2023/04/25 12:51:24;;;;;;;5.57;1.10;;;;;;;;;;5055090;28;20013;-63
2023/04/25 12:53:50;;;;;;;7.10;1.60;;;;;;;;;;5055228;28;20025;-64
2023/04/25 12:56:15;;;;;;;7.97;1.63;;;;;;;;;;5055220;28;20346;-63
2023/04/25 12:58:41;;;;;;;5.33;1.20;;;;;;;;;;5055035;28;20028;-63
2023/04/25 13:01:06;;;;;;;10.40;1.73;;;;;;;;;;5055065;28;20026;-63
2023/04/25 13:03:32;;;;;;;3.13;0.80;;;;;;;;;;5054919;28;20114;-63
2023/04/25 13:05:58;;;;;;;5.37;1.27;;;;;;;;;;5054607;28;20040;-63
2023/04/25 13:08:23;;;;;;;6.93;1.13;;;;;;;;;;5054578;28;20039;-63
2023/04/25 13:10:48;;;;;;;10.13;1.50;;;;;;;;;;5054767;28;20020;-63
2023/04/25 13:13:14;;;;;;;8.17;1.50;;;;;;;;;;5054742;28;20016;-63
2023/04/25 13:15:39;;;;;;;9.67;1.73;;;;;;;;;;5054655;28;20027;-63
2023/04/25 13:18:05;;;;;;;5.53;1.07;;;;;;;;;;5054954;28;20017;-64
2023/04/25 13:20:30;;;;;;;7.37;1.20;;;;;;;;;;5054397;28;20048;-63
2023/04/25 13:22:56;;;;;;;5.15;1.13;;;;;;;;;;5054250;28;20066;-64
2023/04/25 13:25:21;;;;;;;4.32;0.90;;;;;;;;;;5054832;28;20017;-65
2023/04/25 13:27:47;;;;;;;5.70;1.17;;;;;;;;;;5054392;28;20032;-67
2023/04/25 13:30:12;;;;;;;4.03;0.98;;;;;;;;;;5054193;28;20021;-67
2023/04/25 13:32:37;;;;;;;5.93;0.90;;;;;;;;;;5054540;28;20476;-67
2023/04/25 13:35:04;;;;;;;5.80;1.10;;;;;;;;;;5054629;28;20377;-66
2023/04/25 13:37:30;;;;;;;7.05;1.10;;;;;;;;;;5054260;28;20069;-64
2023/04/25 13:39:56;;;;;;;6.00;1.08;;;;;;;;;;5053939;28;20045;-64
2023/04/25 13:42:21;;;;;;;8.88;1.30;;;;;;;;;;5054497;28;20021;-63
2023/04/25 13:44:47;;;;;;;4.30;1.13;;;;;;;;;;5053938;28;20017;-63
2023/04/25 13:47:12;;;;;;;7.57;1.53;;;;;;;;;;5053608;28;20027;-63
2023/04/25 13:49:37;;;;;;;5.77;1.47;;;;;;;;;;5052977;28;20047;-63
2023/04/25 13:52:03;;;;;;;10.47;1.87;;;;;;;;;;5053981;28;20078;-63
2023/04/25 13:54:28;;;;;;;5.70;1.40;;;;;;;;;;5054099;28;20052;-63
2023/04/25 13:56:58;;;;;;;5.30;1.10;;;;;;;;;;5053998;28;20401;-63
2023/04/25 13:59:23;;;;;;;5.33;1.20;;;;;;;;;;5054206;28;20013;-64
2023/04/25 14:01:49;;;;;;;7.70;1.67;;;;;;;;;;5053755;28;20473;-64
2023/04/25 14:04:14;;;;;;;8.03;1.53;;;;;;;;;;5053505;28;20051;-65
2023/04/25 14:06:39;;;;;;;6.30;1.30;;;;;;;;;;5054062;28;20017;-65
2023/04/25 14:09:06;;;;;;;6.47;1.45;;;;;;;;;;5053388;28;20024;-66
2023/04/25 14:11:31;;;;;;;8.07;1.35;;;;;;;;;;5053798;28;20090;-66
2023/04/25 14:13:57;;;;;;;7.93;1.20;;;;;;;;;;5053678;28;20017;-67
2023/04/25 14:16:23;;;;;;;5.60;1.10;;;;;;;;;;5052539;28;20024;-65
2023/04/25 14:18:48;;;;;;;7.10;1.40;;;;;;;;;;5053620;28;20025;-65
2023/04/25 14:21:13;;;;;;;10.43;2.03;;;;;;;;;;5053613;28;20471;-65
2023/04/25 14:23:38;;;;;;;10.07;1.97;;;;;;;;;;5053767;28;20419;-65
2023/04/25 14:26:05;;;;;;;4.95;1.20;;;;;;;;;;5053544;28;20469;-65
2023/04/25 14:28:30;;;;;;;6.35;1.15;;;;;;;;;;5053315;28;20025;-64